This is the latest recevied weather packets stored in our database for station/object OK2PAT-12. If no packets are shown the sender has not sent any weather packets the latest 10 day(s).
| Time | Temp. | Humidity | Pressure | Rain* | Wind** | Luminosity | Snow |
|---|---|---|---|---|---|---|---|
| 1788598952 | 18.89° C | 85% | 1019.3 hPa | - | - | - | - |
| 1788598352 | 18.89° C | 86% | 1019.4 hPa | - | - | - | - |
| 1788597751 | 18.33° C | 88% | 1019.3 hPa | - | - | - | - |
| 1788597152 | 18.33° C | 88% | 1019.2 hPa | - | - | - | - |
| 1788596552 | 18.33° C | 89% | 1019 hPa | - | - | - | - |
| 1788595952 | 18.33° C | 89% | 1018.9 hPa | - | - | - | - |
| 1788595352 | 18.33° C | 90% | 1018.9 hPa | - | - | - | - |
| 1788594751 | 18.33° C | 91% | 1018.9 hPa | - | - | - | - |
| 1788594152 | 18.33° C | 92% | 1019 hPa | - | - | - | - |
| 1788593551 | 17.78° C | 92% | 1019 hPa | - | - | - | - |
| 1788592952 | 17.22° C | 93% | 1019 hPa | - | - | - | - |
| 1788592351 | 17.22° C | 93% | 1018.8 hPa | - | - | - | - |
| 1788591752 | 16.67° C | 94% | 1018.7 hPa | - | - | - | - |
| 1788591151 | 16.67° C | 94% | 1018.9 hPa | - | - | - | - |
| 1788589977 | 16.11° C | 97% | 1018.1 hPa | - | - | - | - |
| 1788589377 | 16.11° C | 98% | 1018.2 hPa | - | - | - | - |
| 1788588776 | 16.11° C | 99% | 1018.2 hPa | - | - | - | - |
| 1788587576 | 15.56° C | 99% | 1017.8 hPa | - | - | - | - |
| 1788586376 | 15° C | 99% | 1017.8 hPa | - | - | - | - |
| 1788585776 | 16.11° C | 99% | 1017.6 hPa | - | - | - | - |
| 1788561771 | 19.44° C | 84% | 1014.1 hPa | - | - | - | - |
| 1788561169 | 19.44° C | 83% | 1013.9 hPa | - | - | - | - |
| 1788559971 | 20.56° C | 78% | 1013.4 hPa | - | - | - | - |
| 1788557567 | 22.78° C | 73% | 1011.7 hPa | - | - | - | - |
| 1788555763 | 22.78° C | 73% | 1011.7 hPa | - | - | - | - |
* Rain since midnight (hover to see other rain measurements)
** Current wind speed in m/s (hover to see current wind gust speed)